Time;durP1;ratioP1;P1;durP2;ratioP2;P2;SDS_P1;SDS_P2;PMS_P1;PMS_P2;Temp;Humidity;BMP_temperature;BMP_pressure;BME280_temperature;BME280_humidity;BME280_pressure;Samples;Min_cycle;Max_cycle;Signal;HPM_P1;HPM_P2
2024/03/22 00:01:53;;;;;;;17.70;12.40;;;12.00;99.90;;;;;;5042126;28;20064;-35
2024/03/22 00:04:19;;;;;;;17.05;12.52;;;12.00;99.90;;;;;;5030478;28;20022;-36
2024/03/22 00:06:46;;;;;;;19.58;12.52;;;12.00;99.90;;;;;;5042180;28;20090;-36
2024/03/22 00:09:12;;;;;;;17.45;12.48;;;12.10;99.90;;;;;;5030608;28;20036;-33
2024/03/22 00:11:39;;;;;;;21.95;14.00;;;12.10;99.90;;;;;;5039065;28;20029;-35
2024/03/22 00:14:05;;;;;;;17.42;12.98;;;12.20;99.90;;;;;;5034902;28;20036;-37
2024/03/22 00:16:31;;;;;;;18.73;12.93;;;12.20;99.90;;;;;;5036241;28;20025;-36
2024/03/22 00:18:56;;;;;;;22.23;14.00;;;12.10;99.90;;;;;;5037427;28;20022;-33
2024/03/22 00:21:22;;;;;;;19.17;13.70;;;12.20;99.90;;;;;;5033549;28;20534;-35
2024/03/22 00:23:48;;;;;;;19.15;12.68;;;12.20;99.90;;;;;;5039479;28;20020;-34
2024/03/22 00:26:14;;;;;;;18.35;12.57;;;12.20;99.90;;;;;;5031346;28;20029;-35
2024/03/22 00:28:40;;;;;;;21.35;14.40;;;12.20;99.90;;;;;;5039615;28;20033;-33
2024/03/22 00:31:05;;;;;;;20.38;14.38;;;12.20;99.90;;;;;;5029695;28;20052;-37
2024/03/22 00:33:31;;;;;;;23.45;15.13;;;12.20;99.90;;;;;;5040751;28;20061;-35
2024/03/22 00:35:57;;;;;;;21.25;14.73;;;12.20;99.90;;;;;;5030091;28;20013;-36
2024/03/22 00:38:23;;;;;;;23.10;15.00;;;12.20;99.90;;;;;;5039991;28;20123;-33
2024/03/22 00:40:48;;;;;;;22.25;15.80;;;12.20;99.90;;;;;;5029572;28;20021;-37
2024/03/22 00:43:14;;;;;;;24.98;16.27;;;12.20;99.90;;;;;;5040970;28;20383;-35
2024/03/22 00:45:40;;;;;;;23.25;16.00;;;12.20;99.90;;;;;;5029352;28;20079;-32
2024/03/22 00:48:05;;;;;;;25.05;16.73;;;12.20;99.90;;;;;;5040268;28;20041;-35
2024/03/22 00:50:31;;;;;;;24.40;16.65;;;12.20;99.90;;;;;;5032175;28;20025;-36
2024/03/22 00:53:05;;;;;;;22.30;15.20;;;12.20;99.90;;;;;;5038195;28;20570;-31
2024/03/22 00:55:30;;;;;;;23.65;15.30;;;12.20;99.90;;;;;;5033812;28;20029;-31
2024/03/22 00:57:56;;;;;;;20.83;13.65;;;12.20;99.90;;;;;;5035010;28;20052;-34
2024/03/22 01:00:25;;;;;;;21.38;15.10;;;12.20;99.90;;;;;;5035610;28;20070;-34
2024/03/22 01:02:51;;;;;;;19.00;13.52;;;12.20;99.90;;;;;;5033548;28;20032;-34
2024/03/22 01:05:17;;;;;;;20.25;13.10;;;12.20;99.90;;;;;;5037522;28;20067;-34
2024/03/22 01:07:42;;;;;;;21.30;13.48;;;12.20;99.90;;;;;;5031051;28;20037;-34
2024/03/22 01:10:08;;;;;;;23.30;14.27;;;12.20;99.90;;;;;;5039176;28;20368;-29
2024/03/22 01:12:34;;;;;;;20.70;14.20;;;12.20;99.90;;;;;;5029354;28;20029;-30
2024/03/22 01:14:59;;;;;;;23.00;15.38;;;12.20;99.90;;;;;;5039296;28;20574;-36
2024/03/22 01:17:25;;;;;;;20.80;14.35;;;12.30;99.90;;;;;;5028835;28;20456;-34
2024/03/22 01:19:51;;;;;;;21.50;14.43;;;12.30;99.90;;;;;;5039761;28;20025;-35
2024/03/22 01:22:18;;;;;;;21.67;14.43;;;12.20;99.90;;;;;;5027771;28;20084;-34
2024/03/22 01:24:44;;;;;;;21.35;14.70;;;12.20;99.90;;;;;;5041107;28;20040;-35
2024/03/22 01:27:10;;;;;;;21.02;14.02;;;12.20;99.90;;;;;;5027717;28;20037;-36
2024/03/22 01:29:36;;;;;;;20.10;13.77;;;12.20;99.90;;;;;;5041039;28;20029;-31
2024/03/22 01:32:05;;;;;;;20.70;14.18;;;12.20;99.90;;;;;;5030275;28;20561;-34
2024/03/22 01:34:30;;;;;;;19.77;13.75;;;12.20;99.90;;;;;;5037999;28;20024;-33
2024/03/22 01:36:56;;;;;;;20.33;13.30;;;12.20;99.90;;;;;;5032422;28;20029;-33
2024/03/22 01:39:22;;;;;;;19.75;14.00;;;12.10;99.90;;;;;;5035181;28;20017;-33
2024/03/22 01:41:48;;;;;;;21.70;13.32;;;12.10;99.90;;;;;;5034531;28;20100;-34
2024/03/22 01:44:14;;;;;;;19.85;14.00;;;12.10;99.90;;;;;;5032910;28;20033;-36
2024/03/22 01:46:41;;;;;;;21.08;14.18;;;12.10;99.90;;;;;;5036996;28;20056;-37
2024/03/22 01:49:15;;;;;;;22.40;14.35;;;12.10;99.90;;;;;;5030132;28;20520;-34
2024/03/22 01:51:41;;;;;;;19.00;12.95;;;12.00;99.90;;;;;;5038379;28;20075;-35
2024/03/22 01:54:09;;;;;;;20.75;14.00;;;12.00;99.90;;;;;;5027948;28;20029;-36
2024/03/22 01:56:39;;;;;;;21.70;13.40;;;12.00;99.90;;;;;;5038452;28;20029;-33
2024/03/22 01:59:05;;;;;;;20.23;13.50;;;12.00;99.90;;;;;;5028845;28;20095;-34
2024/03/22 02:01:31;;;;;;;19.60;13.02;;;12.00;99.90;;;;;;5038666;28;20025;-35
2024/03/22 02:03:57;;;;;;;20.17;12.93;;;12.00;99.90;;;;;;5029062;28;20025;-37
2024/03/22 02:06:22;;;;;;;19.90;13.90;;;11.90;99.90;;;;;;5039600;28;20032;-34
2024/03/22 02:08:48;;;;;;;20.55;13.95;;;12.00;99.90;;;;;;5027208;28;20033;-36
2024/03/22 02:11:14;;;;;;;18.45;12.68;;;12.00;99.90;;;;;;5040020;28;20758;-35
2024/03/22 02:13:39;;;;;;;19.83;13.27;;;11.90;99.90;;;;;;5028282;28;20759;-37
2024/03/22 02:16:05;;;;;;;19.75;13.70;;;11.90;99.90;;;;;;5038878;28;20029;-36
2024/03/22 02:18:31;;;;;;;21.23;13.27;;;11.90;99.90;;;;;;5030086;28;20091;-33
2024/03/22 02:20:57;;;;;;;19.80;13.70;;;11.90;99.90;;;;;;5037146;28;20028;-34
2024/03/22 02:23:39;;;;;;;20.80;13.48;;;11.90;99.90;;;;;;5031286;28;20014;-34
2024/03/22 02:26:06;;;;;;;20.35;14.02;;;11.90;99.90;;;;;;5036533;28;20036;-35
2024/03/22 02:28:33;;;;;;;20.17;13.10;;;12.00;99.90;;;;;;5032858;28;20037;-33
2024/03/22 02:30:59;;;;;;;17.67;12.70;;;11.90;99.90;;;;;;5035718;28;20071;-31
2024/03/22 02:33:25;;;;;;;20.23;12.95;;;11.90;99.90;;;;;;5041640;28;20705;-32
2024/03/22 02:36:00;;;;;;;20.25;13.05;;;12.00;99.90;;;;;;5037977;28;20029;-34
2024/03/22 02:38:26;;;;;;;20.88;13.98;;;12.00;99.90;;;;;;5043279;28;20029;-38
2024/03/22 02:40:52;;;;;;;21.48;14.25;;;12.00;99.90;;;;;;5037235;28;20024;-36
2024/03/22 02:43:18;;;;;;;23.95;15.70;;;12.00;99.90;;;;;;5043702;28;20137;-35
2024/03/22 02:45:44;;;;;;;22.25;14.68;;;12.00;99.90;;;;;;5035738;28;20013;-30
2024/03/22 02:48:10;;;;;;;21.70;14.40;;;11.90;99.90;;;;;;5044811;28;20056;-36
2024/03/22 02:50:36;;;;;;;20.73;14.43;;;12.00;99.90;;;;;;5034024;28;20024;-34
2024/03/22 02:53:02;;;;;;;21.30;14.25;;;12.00;99.90;;;;;;5046453;28;20074;-35
2024/03/22 02:55:28;;;;;;;20.48;14.25;;;12.00;99.90;;;;;;5033061;28;20116;-36
2024/03/22 02:57:54;;;;;;;22.52;14.68;;;12.00;99.90;;;;;;5045942;28;20033;-35
2024/03/22 03:00:19;;;;;;;23.70;15.02;;;12.00;99.90;;;;;;5032463;28;20060;-34
2024/03/22 03:02:49;;;;;;;20.98;15.15;;;12.00;99.90;;;;;;5046620;28;20035;-36
2024/03/22 03:05:14;;;;;;;21.55;14.48;;;12.00;99.90;;;;;;5034680;28;20139;-34
2024/03/22 03:07:40;;;;;;;23.92;15.52;;;12.00;99.90;;;;;;5044669;28;20147;-35
2024/03/22 03:10:06;;;;;;;23.25;16.27;;;12.00;99.90;;;;;;5037267;28;20022;-36
2024/03/22 03:12:38;;;;;;;24.75;16.83;;;12.00;99.90;;;;;;5041597;28;20359;-36
2024/03/22 03:15:04;;;;;;;22.60;15.98;;;12.00;99.90;;;;;;5039543;28;20036;-32
2024/03/22 03:17:29;;;;;;;23.42;15.95;;;12.00;99.90;;;;;;5040286;28;20029;-33
2024/03/22 03:19:56;;;;;;;20.85;14.80;;;12.00;99.90;;;;;;5041634;28;20060;-31
2024/03/22 03:22:22;;;;;;;22.15;15.18;;;12.00;99.90;;;;;;5037163;28;20029;-34
2024/03/22 03:24:47;;;;;;;22.40;15.45;;;12.00;99.90;;;;;;5044541;28;20126;-34
2024/03/22 03:27:13;;;;;;;22.92;15.10;;;12.00;99.90;;;;;;5034549;28;20033;-36
2024/03/22 03:29:41;;;;;;;22.05;15.00;;;12.00;99.90;;;;;;5045036;28;20159;-34
2024/03/22 03:32:07;;;;;;;23.98;15.93;;;12.00;99.90;;;;;;5033992;28;20144;-32
2024/03/22 03:34:32;;;;;;;22.50;15.40;;;12.10;99.90;;;;;;5045509;28;20097;-33
2024/03/22 03:37:00;;;;;;;21.77;15.27;;;12.10;99.90;;;;;;5033219;28;20028;-34
2024/03/22 03:39:26;;;;;;;22.17;15.38;;;12.10;99.90;;;;;;5044816;28;20143;-37
2024/03/22 03:41:51;;;;;;;22.20;15.35;;;12.10;99.90;;;;;;5032581;28;20805;-33
2024/03/22 03:44:17;;;;;;;23.10;15.50;;;12.10;99.90;;;;;;5041497;28;20021;-33
2024/03/22 03:46:42;;;;;;;27.52;19.48;;;12.10;99.90;;;;;;5030710;28;20029;-35
2024/03/22 03:49:08;;;;;;;24.67;17.48;;;12.10;99.90;;;;;;5041551;28;20029;-30
2024/03/22 03:51:34;;;;;;;23.83;16.52;;;12.20;99.90;;;;;;5034012;28;20076;-33
2024/03/22 03:54:03;;;;;;;27.30;17.42;;;12.10;99.90;;;;;;5038349;28;20025;-36
2024/03/22 03:56:28;;;;;;;27.73;18.73;;;12.20;99.90;;;;;;5034956;28;20075;-36
2024/03/22 03:58:54;;;;;;;24.48;15.88;;;12.10;99.90;;;;;;5037317;28;20029;-38
2024/03/22 04:01:19;;;;;;;24.35;17.83;;;12.20;99.90;;;;;;5037078;28;20013;-36
2024/03/22 04:03:45;;;;;;;26.67;18.80;;;12.10;99.90;;;;;;5034378;28;20032;-34
2024/03/22 04:06:11;;;;;;;29.00;19.35;;;12.10;99.90;;;;;;5040866;28;20013;-34
2024/03/22 04:08:36;;;;;;;26.75;18.92;;;12.10;99.90;;;;;;5031402;28;20389;-35
2024/03/22 04:11:02;;;;;;;27.73;18.95;;;12.20;99.90;;;;;;5040534;28;20029;-34
2024/03/22 04:13:28;;;;;;;28.80;20.80;;;12.10;99.90;;;;;;5030609;28;20048;-33
2024/03/22 04:15:54;;;;;;;25.40;18.10;;;12.10;99.90;;;;;;5041082;28;20052;-36
2024/03/22 04:18:20;;;;;;;26.60;18.85;;;12.10;99.90;;;;;;5031418;28;20034;-34
2024/03/22 04:20:56;;;;;;;30.95;20.88;;;12.10;99.90;;;;;;5022217;28;20029;-34
2024/03/22 04:23:22;;;;;;;26.23;18.83;;;12.10;99.90;;;;;;5033037;28;20026;-37
2024/03/22 04:26:01;;;;;;;26.13;17.98;;;12.10;99.90;;;;;;5021763;28;20029;-38
2024/03/22 04:28:27;;;;;;;30.00;20.27;;;12.10;99.90;;;;;;5033020;28;20448;-34
2024/03/22 04:30:58;;;;;;;24.52;18.02;;;12.10;99.90;;;;;;5022115;28;20095;-34
2024/03/22 04:33:24;;;;;;;24.75;17.27;;;12.10;99.90;;;;;;5033884;28;20140;-31
2024/03/22 04:35:50;;;;;;;25.40;17.25;;;12.10;99.90;;;;;;5021767;28;20086;-35
2024/03/22 04:38:15;;;;;;;25.42;17.58;;;12.10;99.90;;;;;;5031652;28;20504;-34
2024/03/22 04:40:41;;;;;;;28.75;20.20;;;12.10;99.90;;;;;;5024258;28;20112;-35
2024/03/22 04:43:12;;;;;;;27.65;18.77;;;12.10;99.90;;;;;;5028054;28;20075;-32
2024/03/22 04:45:38;;;;;;;27.40;19.52;;;12.00;99.90;;;;;;5025712;28;20096;-34
2024/03/22 04:48:04;;;;;;;27.60;18.92;;;12.00;99.90;;;;;;5026829;28;20029;-37
2024/03/22 04:50:33;;;;;;;33.92;21.35;;;12.00;99.90;;;;;;5027365;28;20057;-36
2024/03/22 04:52:59;;;;;;;33.17;21.98;;;12.00;99.90;;;;;;5024075;28;20037;-35
2024/03/22 04:55:27;;;;;;;31.40;20.70;;;12.00;99.90;;;;;;5029792;28;20038;-34
2024/03/22 04:57:53;;;;;;;27.00;19.63;;;12.00;99.90;;;;;;5022343;28;20025;-36
2024/03/22 05:00:19;;;;;;;30.13;21.15;;;12.00;99.90;;;;;;5031739;28;20036;-36
2024/03/22 05:02:44;;;;;;;31.52;21.15;;;12.00;99.90;;;;;;5023019;28;20021;-37
2024/03/22 05:05:11;;;;;;;30.25;21.17;;;12.00;99.90;;;;;;5031094;28;20029;-38
2024/03/22 05:07:36;;;;;;;28.05;19.65;;;12.00;99.90;;;;;;5021744;28;20996;-35
2024/03/22 05:10:03;;;;;;;32.75;21.23;;;11.90;99.90;;;;;;5033969;28;20033;-35
2024/03/22 05:12:29;;;;;;;31.00;21.02;;;11.90;99.90;;;;;;5020609;28;20056;-33
2024/03/22 05:14:55;;;;;;;32.33;21.23;;;11.90;99.90;;;;;;5033543;28;20036;-36
2024/03/22 05:17:20;;;;;;;29.98;20.42;;;11.90;99.90;;;;;;5021192;28;20028;-34
2024/03/22 05:19:46;;;;;;;33.50;21.75;;;11.90;99.90;;;;;;5032069;28;20036;-36
2024/03/22 05:22:11;;;;;;;29.10;20.10;;;11.90;99.90;;;;;;5022018;28;20469;-31
2024/03/22 05:24:37;;;;;;;29.50;21.38;;;11.80;99.90;;;;;;5027193;28;20021;-29
2024/03/22 05:27:03;;;;;;;29.35;20.00;;;11.80;99.90;;;;;;5022894;28;20033;-36
2024/03/22 05:29:28;;;;;;;26.52;18.48;;;11.80;99.90;;;;;;5024838;28;20833;-37
2024/03/22 05:31:54;;;;;;;29.83;20.33;;;11.80;99.90;;;;;;5024775;28;20053;-34
2024/03/22 05:34:19;;;;;;;27.80;19.52;;;11.80;99.90;;;;;;5022004;28;20048;-39
2024/03/22 05:36:46;;;;;;;27.85;18.35;;;11.80;99.90;;;;;;5028742;28;20038;-34
2024/03/22 05:39:12;;;;;;;24.25;17.15;;;11.80;99.90;;;;;;5020847;28;20030;-37
2024/03/22 05:41:38;;;;;;;28.90;19.20;;;11.80;99.90;;;;;;5031792;28;20021;-32
2024/03/22 05:44:04;;;;;;;24.65;17.65;;;11.80;99.90;;;;;;5021581;28;20080;-33
2024/03/22 05:46:30;;;;;;;28.33;18.73;;;11.80;99.90;;;;;;5031126;28;20112;-36
2024/03/22 05:48:56;;;;;;;26.23;18.27;;;11.70;99.90;;;;;;5021241;28;20044;-35
2024/03/22 05:51:22;;;;;;;28.25;19.38;;;11.70;99.90;;;;;;5031997;28;20083;-30
2024/03/22 05:53:48;;;;;;;30.10;20.48;;;11.70;99.90;;;;;;5019970;28;20025;-31
2024/03/22 05:56:14;;;;;;;28.00;19.08;;;11.70;99.90;;;;;;5032634;28;20142;-35
2024/03/22 05:58:40;;;;;;;26.17;18.65;;;11.70;99.90;;;;;;5020530;28;20029;-33
2024/03/22 06:01:05;;;;;;;25.15;17.83;;;11.70;99.90;;;;;;5030049;28;20025;-36
2024/03/22 06:03:31;;;;;;;29.73;18.85;;;11.70;99.90;;;;;;5022188;28;20079;-35
2024/03/22 06:06:00;;;;;;;25.80;17.75;;;11.70;99.90;;;;;;5027630;28;20124;-34
2024/03/22 06:08:28;;;;;;;27.20;18.25;;;11.70;99.90;;;;;;5023108;28;20045;-35
2024/03/22 06:10:58;;;;;;;27.33;19.05;;;11.70;99.90;;;;;;5027281;28;20698;-35
2024/03/22 06:13:24;;;;;;;25.23;17.48;;;11.70;99.90;;;;;;5026254;28;20546;-33
2024/03/22 06:15:50;;;;;;;25.83;18.05;;;11.70;99.90;;;;;;5023627;28;20116;-34
2024/03/22 06:18:16;;;;;;;31.02;20.35;;;11.70;99.90;;;;;;5028054;28;20029;-33
2024/03/22 06:20:41;;;;;;;27.27;19.42;;;11.70;99.90;;;;;;5022640;28;20357;-33
2024/03/22 06:23:10;;;;;;;26.90;18.70;;;11.70;99.90;;;;;;5029972;28;20079;-37
2024/03/22 06:25:36;;;;;;;23.27;17.65;;;11.70;99.90;;;;;;5021615;28;20109;-35
2024/03/22 06:28:02;;;;;;;24.00;16.92;;;11.70;99.90;;;;;;5030440;28;20045;-33
2024/03/22 06:30:27;;;;;;;24.50;16.77;;;11.70;99.90;;;;;;5020041;28;20077;-36
2024/03/22 06:32:54;;;;;;;22.85;16.38;;;11.70;99.90;;;;;;5031409;28;20054;-33
2024/03/22 06:35:20;;;;;;;20.33;14.90;;;11.80;99.90;;;;;;5019184;28;20075;-34
2024/03/22 06:37:46;;;;;;;22.88;16.30;;;11.70;99.90;;;;;;5032384;28;20033;-35
2024/03/22 06:40:12;;;;;;;27.70;18.42;;;11.80;99.90;;;;;;5019730;28;20553;-36
2024/03/22 06:42:37;;;;;;;21.10;15.45;;;11.80;99.90;;;;;;5031240;28;20564;-36
2024/03/22 06:45:03;;;;;;;21.98;15.05;;;11.80;99.90;;;;;;5020738;28;20030;-30
2024/03/22 06:47:29;;;;;;;21.33;15.05;;;11.80;99.90;;;;;;5028865;28;20038;-35
2024/03/22 06:49:54;;;;;;;20.05;14.32;;;11.80;99.90;;;;;;5022448;28;20135;-33
2024/03/22 06:52:26;;;;;;;19.58;14.20;;;11.80;99.90;;;;;;5025726;28;20116;-33
2024/03/22 06:54:53;;;;;;;21.93;16.03;;;11.90;99.90;;;;;;5025221;28;20032;-35
2024/03/22 06:57:18;;;;;;;20.98;16.10;;;11.90;99.90;;;;;;5024552;28;20103;-35
2024/03/22 06:59:44;;;;;;;24.27;16.70;;;11.90;99.90;;;;;;5027697;28;20026;-35
2024/03/22 07:02:09;;;;;;;20.52;15.48;;;11.90;99.90;;;;;;5021438;28;20029;-37
2024/03/22 07:04:35;;;;;;;21.45;14.57;;;11.90;99.90;;;;;;5028882;28;20021;-36
2024/03/22 07:07:01;;;;;;;21.20;15.30;;;11.90;99.90;;;;;;5020832;28;20404;-31
2024/03/22 07:09:29;;;;;;;22.02;15.98;;;12.00;99.90;;;;;;5030065;28;20026;-31
2024/03/22 07:11:55;;;;;;;22.17;16.77;;;12.00;99.90;;;;;;5020490;28;20045;-30
2024/03/22 07:14:21;;;;;;;24.35;16.88;;;11.90;99.90;;;;;;5020103;28;20364;-32
2024/03/22 07:16:46;;;;;;;26.13;17.48;;;11.90;99.90;;;;;;5039435;28;20035;-37
2024/03/22 07:19:12;;;;;;;22.08;15.45;;;12.00;99.90;;;;;;5030175;28;20575;-36
2024/03/22 07:21:38;;;;;;;20.08;14.70;;;12.00;99.90;;;;;;5043800;28;20021;-33
2024/03/22 07:24:04;;;;;;;21.75;15.90;;;12.00;99.90;;;;;;5029849;28;20077;-37
2024/03/22 07:26:30;;;;;;;23.50;16.83;;;12.10;99.90;;;;;;5003285;28;20029;-37
2024/03/22 07:28:56;;;;;;;26.60;17.83;;;12.10;99.90;;;;;;5026896;28;20044;-35
2024/03/22 07:31:21;;;;;;;22.30;16.30;;;12.20;99.90;;;;;;5024066;28;20045;-34
2024/03/22 07:33:47;;;;;;;21.67;15.07;;;12.30;99.90;;;;;;5030469;28;20697;-36
2024/03/22 07:36:16;;;;;;;23.15;16.73;;;12.40;99.90;;;;;;5027901;28;20026;-37
2024/03/22 07:38:42;;;;;;;20.60;15.32;;;12.40;99.90;;;;;;5026984;28;20136;-35
2024/03/22 07:41:07;;;;;;;22.45;16.42;;;12.40;99.90;;;;;;5030148;28;20021;-32
2024/03/22 07:43:33;;;;;;;17.70;14.35;;;12.40;99.90;;;;;;5024968;28;20026;-35
2024/03/22 07:45:58;;;;;;;19.58;14.93;;;12.40;99.90;;;;;;5033000;28;20578;-35
2024/03/22 07:48:24;;;;;;;20.73;15.57;;;12.40;99.90;;;;;;5023680;28;20746;-33
2024/03/22 07:50:59;;;;;;;24.50;18.83;;;12.40;99.90;;;;;;5034566;28;20080;-36
2024/03/22 07:53:25;;;;;;;23.92;16.70;;;12.30;99.90;;;;;;5023549;28;20080;-35
2024/03/22 07:55:50;;;;;;;21.80;15.55;;;12.30;99.90;;;;;;5034309;28;20531;-35
2024/03/22 07:58:16;;;;;;;24.23;17.08;;;12.30;99.90;;;;;;5022702;28;20038;-32
2024/03/22 08:00:41;;;;;;;20.58;16.02;;;12.30;99.90;;;;;;5034337;28;20029;-34
2024/03/22 08:03:14;;;;;;;21.92;15.52;;;12.30;99.90;;;;;;5022213;28;20741;-32
2024/03/22 08:05:40;;;;;;;19.90;14.07;;;12.20;99.90;;;;;;5034614;28;20048;-35
2024/03/22 08:08:06;;;;;;;16.50;13.15;;;12.30;99.90;;;;;;5021482;28;20033;-33
2024/03/22 08:10:32;;;;;;;20.40;13.98;;;12.30;99.90;;;;;;5034369;28;20029;-34
2024/03/22 08:12:57;;;;;;;20.25;14.40;;;12.40;99.90;;;;;;5024150;28;20036;-35
2024/03/22 08:15:23;;;;;;;20.58;15.38;;;12.40;99.90;;;;;;5029947;28;20029;-37
2024/03/22 08:17:48;;;;;;;21.75;15.88;;;12.40;99.90;;;;;;5025881;28;20034;-35
2024/03/22 08:20:14;;;;;;;21.98;16.52;;;12.40;99.90;;;;;;5028368;28;20040;-37
2024/03/22 08:22:42;;;;;;;21.42;16.35;;;12.40;99.90;;;;;;5027576;28;20025;-37
2024/03/22 08:25:08;;;;;;;24.17;17.52;;;12.40;99.90;;;;;;5026224;28;20037;-35
2024/03/22 08:27:34;;;;;;;22.45;17.27;;;12.30;99.90;;;;;;5030524;28;20041;-34
2024/03/22 08:30:00;;;;;;;23.27;17.13;;;12.30;99.90;;;;;;5023081;28;20033;-36
2024/03/22 08:32:25;;;;;;;26.65;18.20;;;12.30;99.90;;;;;;5032151;28;20038;-34
2024/03/22 08:34:51;;;;;;;25.00;18.15;;;12.30;99.90;;;;;;5022824;28;20041;-35
2024/03/22 08:37:17;;;;;;;24.02;17.67;;;12.30;99.90;;;;;;5032611;28;20026;-33
2024/03/22 08:39:43;;;;;;;28.15;19.23;;;12.20;99.90;;;;;;5021797;28;20098;-36
2024/03/22 08:42:09;;;;;;;27.67;20.27;;;12.30;99.90;;;;;;5027189;28;20021;-36
2024/03/22 08:44:35;;;;;;;31.08;21.65;;;12.20;99.90;;;;;;5041956;28;20065;-37
2024/03/22 08:47:00;;;;;;;24.90;18.77;;;12.20;99.90;;;;;;5028735;28;20436;-36
2024/03/22 08:49:26;;;;;;;26.38;19.25;;;12.20;99.90;;;;;;5040830;28;20036;-37
2024/03/22 08:51:51;;;;;;;26.52;19.13;;;12.20;99.90;;;;;;5030928;28;20026;-34
2024/03/22 08:54:20;;;;;;;24.80;18.45;;;12.30;99.90;;;;;;5039907;28;20044;-34
2024/03/22 08:56:45;;;;;;;25.20;18.95;;;12.20;99.90;;;;;;5032884;28;20029;-36
2024/03/22 08:59:11;;;;;;;31.02;22.88;;;12.20;99.90;;;;;;5038453;28;20036;-33
2024/03/22 09:01:37;;;;;;;28.73;20.38;;;12.20;99.90;;;;;;5035456;28;20475;-38
2024/03/22 09:04:03;;;;;;;32.67;23.42;;;12.20;99.90;;;;;;5035244;28;20025;-34
2024/03/22 09:06:29;;;;;;;31.02;23.20;;;12.20;99.90;;;;;;5036991;28;20025;-35
2024/03/22 09:08:57;;;;;;;32.90;23.20;;;12.10;99.90;;;;;;5032941;28;20126;-33
2024/03/22 09:11:23;;;;;;;29.27;22.00;;;12.10;99.90;;;;;;5038431;28;20032;-36
2024/03/22 09:13:52;;;;;;;36.22;25.60;;;12.10;99.90;;;;;;5030315;28;20723;-35
2024/03/22 09:16:18;;;;;;;32.83;24.63;;;12.00;99.90;;;;;;5039090;28;20021;-37
2024/03/22 09:18:44;;;;;;;31.80;22.35;;;12.00;99.90;;;;;;5029178;28;20024;-35
2024/03/22 09:21:10;;;;;;;30.55;21.92;;;11.90;99.90;;;;;;5038896;28;20052;-34
2024/03/22 09:23:36;;;;;;;32.90;23.73;;;12.00;99.90;;;;;;5029236;28;20024;-34
2024/03/22 09:26:01;;;;;;;29.10;23.05;;;12.00;99.90;;;;;;5040767;28;20024;-33
2024/03/22 09:28:27;;;;;;;28.38;21.20;;;12.00;99.90;;;;;;5028277;28;20064;-36
2024/03/22 09:30:53;;;;;;;33.03;23.02;;;12.00;99.90;;;;;;5040967;28;20713;-33
2024/03/22 09:33:18;;;;;;;29.98;21.05;;;12.10;99.90;;;;;;5028993;28;20034;-35
2024/03/22 09:35:44;;;;;;;33.38;23.70;;;12.10;99.90;;;;;;5040123;28;20138;-37
2024/03/22 09:38:09;;;;;;;30.35;21.65;;;12.10;99.90;;;;;;5031340;28;20574;-35
2024/03/22 09:40:39;;;;;;;30.55;21.73;;;12.10;99.90;;;;;;5036509;28;20060;-34
2024/03/22 09:43:07;;;;;;;32.08;21.67;;;12.10;99.90;;;;;;5033093;28;20835;-34
2024/03/22 09:45:33;;;;;;;36.78;24.05;;;12.10;99.90;;;;;;5035080;28;20078;-32
2024/03/22 09:47:59;;;;;;;32.00;22.80;;;12.00;99.90;;;;;;5035644;28;20484;-33
2024/03/22 09:50:26;;;;;;;33.72;23.05;;;12.10;99.90;;;;;;5032326;28;20598;-33
2024/03/22 09:52:56;;;;;;;27.05;19.60;;;12.10;99.90;;;;;;5037839;28;20044;-38
2024/03/22 09:55:25;;;;;;;29.23;21.17;;;12.10;99.90;;;;;;5030832;28;20028;-36
2024/03/22 09:57:53;;;;;;;33.97;22.20;;;12.10;99.90;;;;;;5039519;28;20102;-37
2024/03/22 10:00:20;;;;;;;30.08;21.88;;;12.10;99.90;;;;;;5028701;28;20028;-33
2024/03/22 10:02:49;;;;;;;32.90;23.90;;;12.10;99.90;;;;;;5039822;28;20492;-32
2024/03/22 10:05:16;;;;;;;36.15;25.02;;;12.10;99.90;;;;;;5029952;28;20029;-37
2024/03/22 10:07:43;;;;;;;37.53;25.73;;;12.10;99.90;;;;;;5039340;28;20064;-35
2024/03/22 10:10:10;;;;;;;31.27;22.80;;;12.10;99.90;;;;;;5028965;28;20529;-36
2024/03/22 10:12:35;;;;;;;26.27;20.10;;;12.20;99.90;;;;;;5040346;28;20601;-34
2024/03/22 10:15:01;;;;;;;33.47;24.45;;;12.10;99.90;;;;;;5027333;28;20026;-34
2024/03/22 10:17:29;;;;;;;29.98;22.60;;;12.20;99.90;;;;;;5039916;28;20053;-34
2024/03/22 10:19:54;;;;;;;27.80;21.15;;;12.20;99.90;;;;;;5027732;28;20021;-33
2024/03/22 10:22:20;;;;;;;26.05;19.92;;;12.20;99.90;;;;;;5040002;28;20031;-33
2024/03/22 10:24:48;;;;;;;25.35;19.77;;;12.10;99.90;;;;;;5030431;28;20025;-33
2024/03/22 10:27:14;;;;;;;23.48;17.95;;;12.10;99.90;;;;;;5037165;28;20067;-32
2024/03/22 10:29:39;;;;;;;25.70;18.95;;;12.10;99.90;;;;;;5033384;28;20864;-35
2024/03/22 10:32:08;;;;;;;27.67;19.08;;;12.00;99.90;;;;;;5034432;28;20166;-36
2024/03/22 10:34:34;;;;;;;24.92;18.98;;;12.00;99.90;;;;;;5034333;28;20831;-35
2024/03/22 10:37:01;;;;;;;23.38;18.63;;;12.00;99.90;;;;;;5033522;28;20031;-33
2024/03/22 10:39:27;;;;;;;23.45;17.90;;;12.00;99.90;;;;;;5037632;28;20028;-33
2024/03/22 10:41:59;;;;;;;22.42;17.92;;;12.00;99.90;;;;;;5029995;28;20021;-35
2024/03/22 10:44:25;;;;;;;21.00;16.25;;;12.00;99.90;;;;;;5038354;28;20025;-35
2024/03/22 10:46:55;;;;;;;21.48;17.55;;;11.90;99.90;;;;;;5029026;28;20029;-33
2024/03/22 10:49:21;;;;;;;21.88;15.80;;;11.90;99.90;;;;;;5037594;28;20156;-32
2024/03/22 10:51:54;;;;;;;24.15;17.20;;;11.90;99.90;;;;;;5029779;28;20032;-33
2024/03/22 10:54:22;;;;;;;22.70;16.77;;;11.90;99.90;;;;;;5043316;28;20033;-34
2024/03/22 10:56:49;;;;;;;19.80;15.38;;;11.90;99.90;;;;;;5031531;28;20466;-35
2024/03/22 10:59:23;;;;;;;22.50;15.82;;;11.90;99.90;;;;;;5024644;28;20026;-35
2024/03/22 11:01:50;;;;;;;15.45;13.15;;;11.90;99.90;;;;;;5030863;28;20024;-35
2024/03/22 11:04:22;;;;;;;15.07;12.57;;;11.90;99.90;;;;;;5043759;28;20041;-32
2024/03/22 11:06:51;;;;;;;18.23;13.70;;;11.90;99.90;;;;;;5031826;28;20083;-33
2024/03/22 11:09:26;;;;;;;17.15;14.00;;;12.00;99.90;;;;;;5043311;28;20029;-36
2024/03/22 11:11:53;;;;;;;17.70;15.00;;;11.90;99.90;;;;;;5031865;28;20133;-35
2024/03/22 11:14:20;;;;;;;18.55;14.00;;;11.90;99.90;;;;;;5044074;28;20108;-35
2024/03/22 11:16:48;;;;;;;15.00;12.70;;;11.90;99.90;;;;;;5032194;28;20034;-36
2024/03/22 11:19:14;;;;;;;17.15;13.48;;;11.90;99.90;;;;;;5042969;28;20766;-37
2024/03/22 11:21:40;;;;;;;16.40;12.82;;;11.90;99.90;;;;;;5033085;28;20030;-33
2024/03/22 11:24:10;;;;;;;15.05;12.05;;;11.90;99.90;;;;;;5039778;28;20066;-35
2024/03/22 11:26:36;;;;;;;12.40;10.60;;;11.90;99.90;;;;;;5035551;28;20040;-36
2024/03/22 11:29:02;;;;;;;11.80;9.82;;;11.90;99.90;;;;;;5038585;28;20036;-34
2024/03/22 11:31:33;;;;;;;13.20;10.85;;;11.90;99.90;;;;;;5037083;28;20042;-36
2024/03/22 11:34:00;;;;;;;13.63;11.50;;;11.90;99.90;;;;;;5036588;28;20120;-34
2024/03/22 11:36:25;;;;;;;12.18;9.60;;;11.90;99.90;;;;;;5039641;28;20028;-34
2024/03/22 11:38:53;;;;;;;11.77;9.82;;;11.80;99.90;;;;;;5033838;28;20033;-35
2024/03/22 11:41:28;;;;;;;10.48;8.70;;;11.80;99.90;;;;;;5041315;28;20025;-36
2024/03/22 11:43:55;;;;;;;9.68;8.50;;;11.80;99.90;;;;;;5022183;28;20116;-37
2024/03/22 11:46:22;;;;;;;8.23;7.30;;;11.80;99.90;;;;;;5040391;28;20068;-32
2024/03/22 11:48:53;;;;;;;7.43;6.68;;;11.90;99.90;;;;;;5031804;28;20043;-31
2024/03/22 11:51:20;;;;;;;7.70;6.23;;;11.80;99.90;;;;;;5040742;28;20121;-36
2024/03/22 11:53:58;;;;;;;8.23;6.63;;;11.90;99.90;;;;;;5032276;28;20091;-32
2024/03/22 11:56:24;;;;;;;7.88;5.97;;;11.90;99.90;;;;;;5041614;28;20223;-37
2024/03/22 11:58:58;;;;;;;6.03;5.43;;;11.90;99.90;;;;;;5030663;28;20021;-36
2024/03/22 12:01:24;;;;;;;6.93;5.68;;;11.80;99.90;;;;;;5042806;28;20025;-37
2024/03/22 12:03:49;;;;;;;6.03;5.43;;;11.90;99.90;;;;;;5028762;28;20032;-35
2024/03/22 12:06:15;;;;;;;5.65;4.90;;;11.90;99.90;;;;;;5041996;28;20033;-33
2024/03/22 12:08:41;;;;;;;6.20;5.63;;;11.90;99.90;;;;;;5029992;28;20472;-36
2024/03/22 12:11:14;;;;;;;6.68;5.35;;;11.90;99.90;;;;;;5042507;28;20033;-32
2024/03/22 12:13:39;;;;;;;6.65;5.75;;;11.90;99.90;;;;;;5030640;28;20025;-34
2024/03/22 12:16:05;;;;;;;5.72;5.10;;;11.90;99.90;;;;;;5042180;28;20033;-35
2024/03/22 12:18:31;;;;;;;4.97;4.47;;;11.90;99.90;;;;;;5033395;28;20033;-36
2024/03/22 12:20:57;;;;;;;5.15;4.70;;;12.00;99.90;;;;;;5038598;28;20027;-35
2024/03/22 12:23:24;;;;;;;5.28;4.78;;;11.90;99.90;;;;;;5035646;28;20025;-36
2024/03/22 12:25:52;;;;;;;5.45;4.90;;;12.00;99.90;;;;;;5036773;28;20025;-32